createdAt,value
2022-11-07T00:00:21.359Z,77.5
2022-11-07T00:01:37.480Z,77.5
2022-11-07T00:02:54.584Z,77.5
2022-11-07T00:04:11.689Z,77.5
2022-11-07T00:05:28.793Z,77.6
2022-11-07T00:06:45.898Z,77.6
2022-11-07T00:08:03.002Z,77.6
2022-11-07T00:09:19.123Z,77.5
2022-11-07T00:10:36.228Z,77.6
2022-11-07T00:11:53.332Z,77.8
2022-11-07T00:13:10.437Z,77.8
2022-11-07T00:14:27.541Z,77.9
2022-11-07T00:15:44.645Z,77.8
2022-11-07T00:17:01.750Z,77.7
2022-11-07T00:18:18.854Z,77.5
2022-11-07T00:19:35.959Z,77.6
2022-11-07T00:20:53.063Z,77.7
2022-11-07T00:22:10.168Z,77.7
2022-11-07T00:23:27.272Z,77.7
2022-11-07T00:24:44.376Z,77.7
2022-11-07T00:26:00.497Z,77.7
2022-11-07T00:27:17.601Z,77.8
2022-11-07T00:28:34.706Z,77.9
2022-11-07T00:29:51.810Z,77.9
2022-11-07T00:31:08.915Z,77.9
2022-11-07T00:32:26.019Z,77.9
2022-11-07T00:33:43.124Z,77.8
2022-11-07T00:35:00.228Z,77.9
2022-11-07T00:36:17.333Z,78.1
2022-11-07T00:37:34.437Z,78.3
2022-11-07T00:38:51.542Z,78.3
2022-11-07T00:40:08.646Z,78.3
2022-11-07T00:41:25.751Z,78.2
2022-11-07T00:42:41.871Z,78.2
2022-11-07T00:43:58.976Z,78.3
2022-11-07T00:45:16.081Z,78.7
2022-11-07T00:46:33.185Z,78.8
2022-11-07T00:47:50.290Z,78.8
2022-11-07T00:49:07.394Z,78.9
2022-11-07T00:50:24.498Z,79
2022-11-07T00:51:41.603Z,79
2022-11-07T00:52:58.707Z,79
2022-11-07T00:54:15.812Z,78.9
2022-11-07T00:55:32.917Z,78.8
2022-11-07T00:56:50.021Z,78.8
2022-11-07T00:58:07.126Z,78.9
2022-11-07T00:59:23.246Z,78.9
2022-11-07T01:00:40.350Z,78.9
2022-11-07T01:01:57.455Z,79
2022-11-07T01:03:14.559Z,79.1
2022-11-07T01:04:31.664Z,79.2
2022-11-07T01:05:48.769Z,79.2
2022-11-07T01:07:05.873Z,79.2
2022-11-07T01:08:22.977Z,79.3
2022-11-07T01:09:40.082Z,79.5
2022-11-07T01:10:57.186Z,79.4
2022-11-07T01:12:14.291Z,79.6
2022-11-07T01:13:31.395Z,79.6
2022-11-07T01:14:48.499Z,79.7
2022-11-07T01:16:04.620Z,79.8
2022-11-07T01:17:21.726Z,79.9
2022-11-07T01:18:38.830Z,79.8
2022-11-07T01:19:55.935Z,80
2022-11-07T01:21:13.039Z,80
2022-11-07T01:22:30.143Z,80.2
2022-11-07T01:23:47.248Z,80.2
2022-11-07T01:25:04.352Z,80.3
2022-11-07T01:26:21.457Z,80.5
2022-11-07T01:27:38.561Z,80.5
2022-11-07T01:28:55.666Z,80.5
2022-11-07T01:30:12.770Z,80.3
2022-11-07T01:31:29.875Z,80.5
2022-11-07T01:32:45.995Z,80.8
2022-11-07T01:34:03.100Z,80.9
2022-11-07T01:35:20.204Z,81
2022-11-07T01:36:37.309Z,80.9
2022-11-07T01:37:54.413Z,81
2022-11-07T01:39:11.518Z,81.2
2022-11-07T01:40:28.622Z,81.2
2022-11-07T01:41:45.727Z,81.3
2022-11-07T01:43:02.831Z,81.2
2022-11-07T01:44:19.936Z,81
2022-11-07T01:45:37.040Z,81.4
2022-11-07T01:46:54.145Z,81.5
2022-11-07T01:48:11.249Z,81.6
2022-11-07T01:49:27.369Z,81.6
2022-11-07T01:50:44.474Z,81.6
2022-11-07T01:52:01.579Z,81.6
2022-11-07T01:53:18.684Z,81.6
2022-11-07T01:54:35.788Z,81.7
2022-11-07T01:55:52.893Z,81.7
2022-11-07T01:57:09.997Z,82
2022-11-07T01:58:27.101Z,82.2
2022-11-07T01:59:44.206Z,82.4
2022-11-07T02:01:01.310Z,82.2
2022-11-07T02:02:18.415Z,82.5
2022-11-07T02:03:35.520Z,82.5
2022-11-07T02:04:52.623Z,82.5
2022-11-07T02:06:08.743Z,82.5
2022-11-07T02:07:25.848Z,82.4
2022-11-07T02:08:42.952Z,82.5
2022-11-07T02:10:00.056Z,82.7
2022-11-07T02:11:17.161Z,82.7
2022-11-07T02:12:34.265Z,82.7
2022-11-07T02:13:51.370Z,82.5
2022-11-07T02:15:08.474Z,82.6
2022-11-07T02:16:25.578Z,82.5
2022-11-07T02:17:42.683Z,82.5
2022-11-07T02:18:59.787Z,82.5
2022-11-07T02:20:16.892Z,82.7
2022-11-07T02:21:33.996Z,82.8
2022-11-07T02:22:50.117Z,82.6
2022-11-07T02:24:07.221Z,82.8
2022-11-07T02:25:24.324Z,83.1
2022-11-07T02:26:41.428Z,83.2
2022-11-07T02:27:58.533Z,83.3
2022-11-07T02:29:15.637Z,83.3
2022-11-07T02:30:32.741Z,83.3
2022-11-07T02:31:49.846Z,83.3
2022-11-07T02:33:06.950Z,83.3
2022-11-07T02:34:24.055Z,83.3
2022-11-07T02:35:41.159Z,83.4
2022-11-07T02:36:58.264Z,83.5
2022-11-07T02:38:15.369Z,83.4
2022-11-07T02:39:31.490Z,83.4
2022-11-07T02:40:48.595Z,83.3
2022-11-07T02:42:05.699Z,83.4
2022-11-07T02:43:22.804Z,83.3
2022-11-07T02:44:39.908Z,83.4
2022-11-07T02:45:57.013Z,83.5
2022-11-07T02:47:14.118Z,83.5
2022-11-07T02:48:31.223Z,83.6
2022-11-07T02:49:48.325Z,83.7
2022-11-07T02:51:05.430Z,83.9
2022-11-07T02:52:22.534Z,83.8
2022-11-07T02:53:39.639Z,84
2022-11-07T02:54:56.743Z,84
2022-11-07T02:56:12.863Z,84.1
2022-11-07T02:57:29.968Z,84.3
2022-11-07T02:58:47.072Z,84.3
2022-11-07T03:00:04.177Z,84.1
2022-11-07T03:01:21.281Z,84.3
2022-11-07T03:02:38.386Z,84.3
2022-11-07T03:03:55.490Z,84.3
2022-11-07T03:05:12.594Z,84
2022-11-07T03:06:29.699Z,84
2022-11-07T03:07:46.803Z,84.3
2022-11-07T03:09:03.908Z,84.5
2022-11-07T03:10:21.012Z,84.5
2022-11-07T03:11:38.117Z,84.3
2022-11-07T03:12:54.237Z,84.5
2022-11-07T03:14:11.342Z,84.5
2022-11-07T03:15:28.446Z,84.5
2022-11-07T03:16:45.550Z,84.7
2022-11-07T03:18:02.655Z,84.7
2022-11-07T03:19:19.760Z,84.8
2022-11-07T03:20:36.864Z,84.8
2022-11-07T03:21:53.968Z,84.8
2022-11-07T03:23:11.074Z,84.5
2022-11-07T03:24:28.176Z,84.5
2022-11-07T03:25:45.280Z,84.4
2022-11-07T03:27:02.385Z,84.4
2022-11-07T03:28:19.489Z,84.5
2022-11-07T03:29:35.610Z,84.8
2022-11-07T03:30:52.714Z,84.8
2022-11-07T03:32:09.819Z,84.9
2022-11-07T03:33:26.923Z,84.9
2022-11-07T03:34:44.028Z,84.8
2022-11-07T03:36:01.132Z,84.8
2022-11-07T03:37:18.237Z,84.9
2022-11-07T03:38:35.341Z,85
2022-11-07T03:39:52.446Z,85.1
2022-11-07T03:41:09.550Z,85.1
2022-11-07T03:42:26.655Z,85.2
2022-11-07T03:43:43.760Z,85.2
2022-11-07T03:45:00.865Z,85.1
2022-11-07T03:46:16.985Z,85.4
2022-11-07T03:47:34.090Z,85.4
2022-11-07T03:48:51.194Z,85.5
2022-11-07T03:50:08.299Z,85.5
2022-11-07T03:51:25.403Z,85.7
2022-11-07T03:52:42.508Z,85.3
2022-11-07T03:53:59.613Z,85.3
2022-11-07T03:55:16.717Z,85.5
2022-11-07T03:56:33.822Z,85.8
2022-11-07T03:57:50.926Z,85.9
2022-11-07T03:59:08.031Z,86
2022-11-07T04:00:25.135Z,85.9
2022-11-07T04:01:42.240Z,86.1
2022-11-07T04:02:58.360Z,86.1
2022-11-07T04:04:15.465Z,85.7
2022-11-07T04:05:32.570Z,85.9
2022-11-07T04:06:49.674Z,86
2022-11-07T04:08:06.778Z,85.9
2022-11-07T04:09:23.883Z,86.1
2022-11-07T04:10:40.988Z,86.2
2022-11-07T04:11:58.092Z,86.3
2022-11-07T04:13:15.196Z,86.5
2022-11-07T04:14:32.301Z,86.8
2022-11-07T04:15:49.405Z,86.7
2022-11-07T04:17:06.510Z,86.7
2022-11-07T04:18:23.614Z,87
2022-11-07T04:19:39.735Z,87
2022-11-07T04:20:56.839Z,87.2
2022-11-07T04:22:13.944Z,87.3
2022-11-07T04:23:31.049Z,87.3
2022-11-07T04:24:48.154Z,87.4
2022-11-07T04:26:05.259Z,87.3
2022-11-07T04:27:21.379Z,87.5
2022-11-07T04:28:38.484Z,87.4
2022-11-07T04:29:55.588Z,87.7
2022-11-07T04:31:12.693Z,87.6
2022-11-07T04:32:29.797Z,87.6
2022-11-07T04:33:46.902Z,87.9
2022-11-07T04:35:04.006Z,87.9
2022-11-07T04:36:21.110Z,88.1
2022-11-07T04:37:38.215Z,88.1
2022-11-07T04:38:55.320Z,88.3
2022-11-07T04:40:12.424Z,88
2022-11-07T04:41:29.528Z,88.1
2022-11-07T04:42:46.633Z,88.1
2022-11-07T04:44:02.753Z,88.2
2022-11-07T04:45:19.858Z,88.2
2022-11-07T04:46:36.962Z,88.3
2022-11-07T04:47:54.067Z,88.3
2022-11-07T04:49:11.172Z,88.5
2022-11-07T04:50:28.276Z,88.5
2022-11-07T04:51:45.381Z,88.6
2022-11-07T04:53:02.485Z,88.7
2022-11-07T04:54:19.589Z,88.5
2022-11-07T04:55:36.694Z,88.7
2022-11-07T04:56:53.798Z,88.8
2022-11-07T04:58:10.903Z,88.8
2022-11-07T04:59:28.007Z,88.7
2022-11-07T05:00:44.128Z,88.7
2022-11-07T05:02:01.233Z,88.7
2022-11-07T05:03:18.337Z,88.9
2022-11-07T05:04:35.441Z,89.2
2022-11-07T05:05:52.546Z,89.2
2022-11-07T05:07:09.650Z,89.1
2022-11-07T05:08:26.755Z,89.2
2022-11-07T05:09:43.859Z,89.2
2022-11-07T05:11:00.964Z,89.3
2022-11-07T05:12:18.069Z,89.4
2022-11-07T05:13:35.173Z,89.4
2022-11-07T05:14:52.277Z,89.2
2022-11-07T05:16:09.382Z,89.3
2022-11-07T05:17:25.502Z,89.2
2022-11-07T05:18:42.607Z,89.4
2022-11-07T05:19:59.711Z,89.3
2022-11-07T05:21:16.816Z,89.4
2022-11-07T05:22:33.921Z,89.4
2022-11-07T05:23:51.025Z,89.4
2022-11-07T05:25:08.130Z,89.5
2022-11-07T05:26:25.234Z,89.8
2022-11-07T05:27:42.339Z,89.7
2022-11-07T05:28:59.443Z,89.8
2022-11-07T05:30:16.548Z,89.9
2022-11-07T05:31:33.652Z,89.9
2022-11-07T05:32:50.757Z,89.9
2022-11-07T05:34:06.878Z,89.9
2022-11-07T05:35:23.982Z,89.9
2022-11-07T05:36:41.087Z,89.9
2022-11-07T05:37:58.191Z,89.8
2022-11-07T05:39:15.296Z,89.8
2022-11-07T05:40:32.400Z,89.9
2022-11-07T05:41:49.505Z,90
2022-11-07T05:43:06.609Z,90.2
2022-11-07T05:44:23.714Z,90.1
2022-11-07T05:45:40.818Z,90
2022-11-07T05:46:57.923Z,90.1
2022-11-07T05:48:15.028Z,90.3
2022-11-07T05:49:32.133Z,90.3
2022-11-07T05:50:48.254Z,90.1
2022-11-07T05:52:05.358Z,90.1
2022-11-07T05:53:22.463Z,90.3
2022-11-07T05:54:39.567Z,90.3
2022-11-07T05:55:56.672Z,90.3
2022-11-07T05:57:13.776Z,90.3
2022-11-07T05:58:30.881Z,90.4
2022-11-07T05:59:47.986Z,90.5
2022-11-07T06:01:05.090Z,90.5
2022-11-07T06:02:22.194Z,90.4
2022-11-07T06:03:39.299Z,90.3
2022-11-07T06:04:56.403Z,90.2
2022-11-07T06:06:13.508Z,90.2
2022-11-07T06:07:29.629Z,90.2
2022-11-07T06:08:46.734Z,90.2
2022-11-07T06:10:03.838Z,90.2
2022-11-07T06:11:20.942Z,90.1
2022-11-07T06:12:38.047Z,90.2
2022-11-07T06:13:55.152Z,90.2
2022-11-07T06:15:12.256Z,90.2
2022-11-07T06:16:29.361Z,90.2
2022-11-07T06:17:46.465Z,90.3
2022-11-07T06:19:03.570Z,90.2
2022-11-07T06:20:20.674Z,90.2
2022-11-07T06:21:37.779Z,90.1
2022-11-07T06:22:54.883Z,90.1
2022-11-07T06:24:11.004Z,89.9
2022-11-07T06:25:28.108Z,89.9
2022-11-07T06:26:45.213Z,89.7
2022-11-07T06:28:02.317Z,89.7
2022-11-07T06:29:19.422Z,89.7
2022-11-07T06:30:36.527Z,89.5
2022-11-07T06:31:53.631Z,89.4
2022-11-07T06:33:10.736Z,89.3
2022-11-07T06:34:27.840Z,89.2
2022-11-07T06:35:44.945Z,89.1
2022-11-07T06:37:02.049Z,88.9
2022-11-07T06:38:19.153Z,88.8
2022-11-07T06:39:36.258Z,88.7
2022-11-07T06:40:52.379Z,88.5
2022-11-07T06:42:09.483Z,88.5
2022-11-07T06:43:26.588Z,88.5
2022-11-07T06:44:43.692Z,88.3
2022-11-07T06:46:00.797Z,88.2
2022-11-07T06:47:17.901Z,88
2022-11-07T06:48:35.006Z,87.8
2022-11-07T06:49:52.110Z,87.7
2022-11-07T06:51:09.215Z,87.6
2022-11-07T06:52:26.320Z,87.3
2022-11-07T06:53:43.425Z,87.3
2022-11-07T06:55:00.529Z,86.9
2022-11-07T06:56:17.634Z,86.8
2022-11-07T06:57:33.754Z,86.7
2022-11-07T06:58:50.860Z,86.3
2022-11-07T07:00:07.964Z,86
2022-11-07T07:01:25.069Z,85.7
2022-11-07T07:02:42.174Z,85.6
2022-11-07T07:03:59.278Z,85.2
2022-11-07T07:05:16.383Z,85.1
2022-11-07T07:06:33.487Z,85
2022-11-07T07:07:50.592Z,85
2022-11-07T07:09:07.696Z,84.8
2022-11-07T07:10:24.801Z,84.7
2022-11-07T07:11:41.906Z,84.5
2022-11-07T07:12:59.010Z,84.4
2022-11-07T07:14:15.131Z,84
2022-11-07T07:15:32.236Z,84
2022-11-07T07:16:49.340Z,84
2022-11-07T07:18:06.445Z,84
2022-11-07T07:19:23.549Z,83.7
2022-11-07T07:20:40.654Z,83.6
2022-11-07T07:21:57.758Z,83.5
2022-11-07T07:23:14.863Z,83.4
2022-11-07T07:24:31.968Z,83.2
2022-11-07T07:25:49.072Z,83.1
2022-11-07T07:27:06.177Z,83
2022-11-07T07:28:23.281Z,82.7
2022-11-07T07:29:40.386Z,82.5
2022-11-07T07:30:56.506Z,82.3
2022-11-07T07:32:13.611Z,82.3
2022-11-07T07:33:30.715Z,82.4
2022-11-07T07:34:47.819Z,82.3
2022-11-07T07:36:04.924Z,82.4
2022-11-07T07:37:22.028Z,82.4
2022-11-07T07:38:39.132Z,82.4
2022-11-07T07:39:56.237Z,82.4
2022-11-07T07:41:13.341Z,82.5
2022-11-07T07:42:30.446Z,82.7
2022-11-07T07:43:47.550Z,82.8
2022-11-07T07:45:04.654Z,82.8
2022-11-07T07:46:21.759Z,82.8
2022-11-07T07:47:37.880Z,82.8
2022-11-07T07:48:54.985Z,83
2022-11-07T07:50:12.089Z,83
2022-11-07T07:51:29.194Z,83
2022-11-07T07:52:46.298Z,82.5
2022-11-07T07:54:03.403Z,82.3
2022-11-07T07:55:20.507Z,82.2
2022-11-07T07:56:37.612Z,82.3
2022-11-07T07:57:54.716Z,82.2
2022-11-07T07:59:11.821Z,82.4
2022-11-07T08:00:28.925Z,82.4
2022-11-07T08:01:46.029Z,82.3
2022-11-07T08:03:03.134Z,82.2
2022-11-07T08:04:19.254Z,82.2
2022-11-07T08:05:36.358Z,82.1
2022-11-07T08:06:53.463Z,82
2022-11-07T08:08:10.567Z,82.1
2022-11-07T08:09:27.671Z,81.9
2022-11-07T08:10:44.776Z,82
2022-11-07T08:12:01.880Z,82
2022-11-07T08:13:18.984Z,81.9
2022-11-07T08:14:36.088Z,82.2
2022-11-07T08:15:53.193Z,82.1
2022-11-07T08:17:10.297Z,82.3
2022-11-07T08:18:27.402Z,82.2
2022-11-07T08:19:44.507Z,82.4
2022-11-07T08:21:00.627Z,82.3
2022-11-07T08:22:17.731Z,82.6
2022-11-07T08:23:34.835Z,82.3
2022-11-07T08:24:51.940Z,82.3
2022-11-07T08:26:09.044Z,81.9
2022-11-07T08:27:26.148Z,81.9
2022-11-07T08:28:43.252Z,81.8
2022-11-07T08:30:00.357Z,81.7
2022-11-07T08:31:17.461Z,81.7
2022-11-07T08:32:34.565Z,81.8
2022-11-07T08:33:51.669Z,81.6
2022-11-07T08:35:08.774Z,81.5
2022-11-07T08:36:25.878Z,81.5
2022-11-07T08:37:41.998Z,81.5
2022-11-07T08:38:59.102Z,81.5
2022-11-07T08:40:16.207Z,81.4
2022-11-07T08:41:33.311Z,81.3
2022-11-07T08:42:50.415Z,81.1
2022-11-07T08:44:07.519Z,81.4
2022-11-07T08:45:23.640Z,81.7
2022-11-07T08:46:40.744Z,81.5
2022-11-07T08:47:57.848Z,81.4
2022-11-07T08:49:14.952Z,81.3
2022-11-07T08:50:32.056Z,81.4
2022-11-07T08:51:49.160Z,81.1
2022-11-07T08:53:06.265Z,81.2
2022-11-07T08:54:23.370Z,81.2
2022-11-07T08:55:40.474Z,81.1
2022-11-07T08:56:57.579Z,81.1
2022-11-07T08:58:14.683Z,80.9
2022-11-07T08:59:31.787Z,80.8
2022-11-07T09:00:48.891Z,80.5
2022-11-07T09:02:05.011Z,80.5
2022-11-07T09:03:22.116Z,80.3
2022-11-07T09:04:39.220Z,80.4
2022-11-07T09:05:56.324Z,80.4
2022-11-07T09:07:13.428Z,80.6
2022-11-07T09:08:30.533Z,80.3
2022-11-07T09:09:47.637Z,80.3
2022-11-07T09:11:04.741Z,80.2
2022-11-07T09:12:21.845Z,80.4
2022-11-07T09:13:38.949Z,80.6
2022-11-07T09:14:56.053Z,80.6
2022-11-07T09:16:13.158Z,80.7
2022-11-07T09:17:30.262Z,80.5
2022-11-07T09:18:46.382Z,80.4
2022-11-07T09:20:03.486Z,80.2
2022-11-07T09:21:20.591Z,80.1
2022-11-07T09:22:37.695Z,80
2022-11-07T09:23:54.799Z,80
2022-11-07T09:25:11.903Z,79.9
2022-11-07T09:26:29.007Z,79.6
2022-11-07T09:29:03.216Z,79.4
2022-11-07T09:30:20.320Z,79.6
2022-11-07T09:31:37.424Z,79.4
2022-11-07T09:32:54.529Z,79.2
2022-11-07T09:34:11.633Z,79
2022-11-07T09:35:27.753Z,79.2
2022-11-07T09:36:44.857Z,79
2022-11-07T09:38:01.962Z,79.1
2022-11-07T09:39:19.066Z,79.1
2022-11-07T09:40:36.170Z,79
2022-11-07T09:41:53.275Z,78.6
2022-11-07T09:43:10.379Z,78.7
2022-11-07T09:44:27.483Z,78.5
2022-11-07T09:45:44.587Z,78.4
2022-11-07T09:47:01.692Z,78.3
2022-11-07T09:48:18.796Z,78.2
2022-11-07T09:49:35.900Z,78.2
2022-11-07T09:50:53.005Z,78.2
2022-11-07T09:52:09.125Z,78.3
2022-11-07T09:53:26.229Z,78.2
2022-11-07T09:54:43.334Z,78.2
2022-11-07T09:56:00.438Z,77.9
2022-11-07T09:57:17.542Z,78.4
2022-11-07T09:58:34.646Z,78.2
2022-11-07T09:59:51.751Z,78.3
2022-11-07T10:01:08.855Z,78
2022-11-07T10:02:25.959Z,77.9
2022-11-07T10:03:43.064Z,78.3
2022-11-07T10:05:00.168Z,78.2
2022-11-07T10:06:17.273Z,78.3
2022-11-07T10:07:34.377Z,78.1
2022-11-07T10:08:50.497Z,78
2022-11-07T10:10:07.601Z,77.8
2022-11-07T10:11:24.706Z,77.5
2022-11-07T10:12:41.810Z,77.5
2022-11-07T10:13:58.915Z,77.3
2022-11-07T10:15:16.019Z,77.1
2022-11-07T10:16:33.123Z,77.3
2022-11-07T10:17:50.228Z,77.3
2022-11-07T10:19:07.332Z,77.3
2022-11-07T10:20:24.436Z,77.5
2022-11-07T10:21:41.541Z,77.5
2022-11-07T10:22:58.645Z,77.5
2022-11-07T10:24:15.750Z,77.8
2022-11-07T10:25:31.870Z,77.7
2022-11-07T10:26:48.974Z,77.3
2022-11-07T10:28:06.079Z,77.3
2022-11-07T10:29:23.183Z,77.1
2022-11-07T10:30:40.288Z,77.2
2022-11-07T10:31:57.392Z,77.4
2022-11-07T10:33:14.496Z,77.4
2022-11-07T10:34:31.601Z,76.9
2022-11-07T10:35:48.706Z,77.1
2022-11-07T10:37:05.810Z,76.9
2022-11-07T10:38:22.914Z,76.7
2022-11-07T10:39:40.019Z,76.7
2022-11-07T10:40:57.123Z,76.6
2022-11-07T10:42:13.243Z,76.6
2022-11-07T10:43:30.348Z,76.2
2022-11-07T10:44:47.452Z,75.8
2022-11-07T10:46:04.557Z,76
2022-11-07T10:47:21.661Z,76
2022-11-07T10:48:38.765Z,76.3
2022-11-07T10:49:55.870Z,76.2
2022-11-07T10:51:12.974Z,76.2
2022-11-07T10:52:30.079Z,75.8
2022-11-07T10:53:47.183Z,76
2022-11-07T10:55:04.288Z,76.1
2022-11-07T10:56:21.393Z,76
2022-11-07T10:57:38.497Z,76.2
2022-11-07T10:58:54.617Z,76.3
2022-11-07T11:00:11.722Z,76.1
2022-11-07T11:01:28.826Z,76.1
2022-11-07T11:02:45.930Z,76.1
2022-11-07T11:04:03.035Z,76.2
2022-11-07T11:05:20.139Z,76.1
2022-11-07T11:06:37.243Z,76.2
2022-11-07T11:07:54.348Z,76.5
2022-11-07T11:09:11.452Z,76.6
2022-11-07T11:10:28.557Z,76.4
2022-11-07T11:11:45.661Z,76.3
2022-11-07T11:13:02.765Z,75.9
2022-11-07T11:14:19.869Z,75.7
2022-11-07T11:15:35.990Z,75.7
2022-11-07T11:16:53.094Z,76
2022-11-07T11:18:10.198Z,75.8
2022-11-07T11:19:27.303Z,75.7
2022-11-07T11:20:44.407Z,75.7
2022-11-07T11:22:01.511Z,75.5
2022-11-07T11:23:18.616Z,75.5
2022-11-07T11:24:35.720Z,75.7
2022-11-07T11:25:52.825Z,75.5
2022-11-07T11:27:09.929Z,75.5
2022-11-07T11:28:27.034Z,75.3
2022-11-07T11:29:44.138Z,75.3
2022-11-07T11:31:01.243Z,75.5
2022-11-07T11:32:17.363Z,75.5
2022-11-07T11:33:34.468Z,75.3
2022-11-07T11:34:51.572Z,75.7
2022-11-07T11:36:08.677Z,75.7
2022-11-07T11:37:25.781Z,75.4
2022-11-07T11:38:42.886Z,75.3
2022-11-07T11:39:59.990Z,75
2022-11-07T11:41:17.095Z,74.8
2022-11-07T11:42:34.199Z,74.6
2022-11-07T11:43:51.304Z,74.2
2022-11-07T11:45:08.408Z,74
2022-11-07T11:46:25.512Z,74.1
2022-11-07T11:47:42.615Z,73.3
2022-11-07T11:48:59.719Z,73.3
2022-11-07T11:50:15.839Z,72.7
2022-11-07T11:51:32.943Z,72.4
2022-11-07T11:52:50.048Z,72
2022-11-07T11:54:07.152Z,72.2
2022-11-07T11:55:24.256Z,71.7
2022-11-07T11:56:41.360Z,71.5
2022-11-07T11:57:58.463Z,71.5
2022-11-07T11:59:15.567Z,71.5
2022-11-07T12:00:32.671Z,71.3
2022-11-07T12:01:49.775Z,71.3
2022-11-07T12:03:06.879Z,70.8
2022-11-07T12:04:23.983Z,70.7
2022-11-07T12:05:41.086Z,70.5
2022-11-07T12:06:57.206Z,70.5
2022-11-07T12:08:14.310Z,70.5
2022-11-07T12:09:31.414Z,70.5
2022-11-07T12:10:48.518Z,70.5
2022-11-07T12:12:05.622Z,70.5
2022-11-07T12:13:22.726Z,70.5
2022-11-07T12:14:39.830Z,70.9
2022-11-07T12:15:56.934Z,70.9
2022-11-07T12:17:14.038Z,70.9
2022-11-07T12:18:31.141Z,70.9
2022-11-07T12:19:48.245Z,70.8
2022-11-07T12:21:05.349Z,70.7
2022-11-07T12:22:22.453Z,71
2022-11-07T12:23:38.573Z,71.2
2022-11-07T12:24:55.677Z,71.5
2022-11-07T12:26:12.781Z,71.9
2022-11-07T12:27:29.885Z,72.2
2022-11-07T12:28:46.989Z,72
2022-11-07T12:30:04.093Z,71.8
2022-11-07T12:31:21.197Z,71.8
2022-11-07T12:32:38.301Z,71.9
2022-11-07T12:35:12.508Z,72.3
2022-11-07T12:36:29.613Z,72.5
2022-11-07T12:37:46.717Z,72.9
2022-11-07T12:39:03.820Z,73.2
2022-11-07T12:40:19.940Z,73.2
2022-11-07T12:41:37.044Z,73.3
2022-11-07T12:42:54.148Z,73.5
2022-11-07T12:44:11.251Z,73.6
2022-11-07T12:45:28.355Z,73.6
2022-11-07T12:46:45.459Z,73.7
2022-11-07T12:49:19.667Z,73.4
2022-11-07T12:50:36.771Z,73.6
2022-11-07T12:51:53.875Z,73.5
2022-11-07T12:53:10.979Z,73.6
2022-11-07T12:54:28.084Z,73.7
2022-11-07T12:55:45.188Z,73.6
2022-11-07T12:57:01.308Z,73.8
2022-11-07T12:58:18.412Z,73.7
2022-11-07T12:59:35.516Z,73.7
2022-11-07T13:00:52.620Z,73.7
2022-11-07T13:02:09.724Z,73.7
2022-11-07T13:03:25.844Z,73.5
2022-11-07T13:04:42.948Z,73.5
2022-11-07T13:06:00.052Z,73.4
2022-11-07T13:07:17.156Z,73.7
2022-11-07T13:08:34.261Z,73.5
2022-11-07T13:09:51.364Z,73.5
2022-11-07T13:11:08.469Z,73.6
2022-11-07T13:12:25.573Z,73.6
2022-11-07T13:13:42.677Z,73.4
2022-11-07T13:14:59.781Z,73.5
2022-11-07T13:16:16.885Z,73
2022-11-07T13:17:33.989Z,73.6
2022-11-07T13:18:51.093Z,73.2
2022-11-07T13:20:07.214Z,73.5
2022-11-07T13:21:24.318Z,73.8
2022-11-07T13:22:41.422Z,74
2022-11-07T13:23:58.526Z,74.1
2022-11-07T13:25:15.631Z,74.2
2022-11-07T13:26:32.735Z,74.2
2022-11-07T13:27:49.840Z,74.1
2022-11-07T13:29:06.944Z,74.1
2022-11-07T13:30:24.048Z,74.1
2022-11-07T13:31:41.152Z,73.8
2022-11-07T13:32:58.256Z,73.9
2022-11-07T13:34:15.360Z,73.6
2022-11-07T13:35:32.464Z,73.6
2022-11-07T13:36:48.585Z,73.8
2022-11-07T13:38:05.689Z,73.5
2022-11-07T13:39:22.794Z,73.3
2022-11-07T13:40:39.898Z,73.4
2022-11-07T13:41:57.002Z,73.5
2022-11-07T13:43:14.107Z,73.3
2022-11-07T13:44:31.211Z,72.9
2022-11-07T13:45:48.315Z,72.9
2022-11-07T13:47:05.419Z,72.8
2022-11-07T13:48:22.523Z,72.9
2022-11-07T13:49:39.628Z,72.4
2022-11-07T13:50:56.732Z,72.5
2022-11-07T13:52:13.836Z,72.6
2022-11-07T13:53:29.954Z,72.8
2022-11-07T13:54:47.058Z,72.9
2022-11-07T13:56:04.163Z,73.1
2022-11-07T13:57:21.267Z,73.1
2022-11-07T13:58:38.372Z,73.1
2022-11-07T13:59:55.476Z,73
2022-11-07T14:01:12.580Z,73.3
2022-11-07T14:02:29.685Z,73.4
2022-11-07T14:03:46.789Z,73.4
2022-11-07T14:05:03.893Z,73.6
2022-11-07T14:06:20.998Z,73.7
2022-11-07T14:07:38.101Z,73.8
2022-11-07T14:08:55.206Z,73.9
2022-11-07T14:10:11.326Z,74.2
2022-11-07T14:11:28.430Z,74.3
2022-11-07T14:12:45.534Z,74.3
2022-11-07T14:14:02.638Z,74.7
2022-11-07T14:15:19.742Z,74.9
2022-11-07T14:16:36.846Z,75
2022-11-07T14:17:53.951Z,75.2
2022-11-07T14:19:11.055Z,75.4
2022-11-07T14:20:28.160Z,75.6
2022-11-07T14:21:45.264Z,75.6
2022-11-07T14:23:02.369Z,75.7
2022-11-07T14:24:19.473Z,75.8
2022-11-07T14:25:36.577Z,76
2022-11-07T14:26:52.698Z,75.9
2022-11-07T14:28:09.802Z,76
2022-11-07T14:29:26.907Z,76
2022-11-07T14:30:44.011Z,76
2022-11-07T14:32:01.115Z,76
2022-11-07T14:33:18.219Z,75.9
2022-11-07T14:34:35.324Z,75.7
2022-11-07T14:35:52.428Z,76.1
2022-11-07T14:37:09.532Z,75.9
2022-11-07T14:38:26.636Z,75.7
2022-11-07T14:39:43.741Z,75.8
2022-11-07T14:41:00.845Z,75.9
2022-11-07T14:42:17.950Z,75.7
2022-11-07T14:43:34.071Z,75.9
2022-11-07T14:44:51.175Z,75.9
2022-11-07T14:46:08.279Z,76
2022-11-07T14:47:25.384Z,76
2022-11-07T14:48:42.488Z,76.2
2022-11-07T14:49:59.592Z,76.2
2022-11-07T14:51:16.697Z,76.2
2022-11-07T14:52:33.801Z,76.2
2022-11-07T14:53:50.906Z,76.2
2022-11-07T14:55:08.010Z,76.2
2022-11-07T14:56:25.114Z,76
2022-11-07T14:57:42.218Z,76.3
2022-11-07T14:58:59.322Z,76.3
2022-11-07T15:00:15.442Z,76.4
2022-11-07T15:01:32.546Z,76.4
2022-11-07T15:02:49.651Z,76.3
2022-11-07T15:04:06.755Z,76.4
2022-11-07T15:05:23.859Z,76.4
2022-11-07T15:06:40.963Z,76.4
2022-11-07T15:07:58.067Z,76.5
2022-11-07T15:09:15.172Z,76.5
2022-11-07T15:10:32.276Z,76.5
2022-11-07T15:11:49.380Z,76.6
2022-11-07T15:13:06.484Z,76.7
2022-11-07T15:14:23.588Z,76.8
2022-11-07T15:15:40.693Z,76.9
2022-11-07T15:16:56.813Z,77
2022-11-07T15:18:13.917Z,77
2022-11-07T15:19:31.022Z,77.2
2022-11-07T15:20:48.126Z,77.2
2022-11-07T15:22:05.230Z,77.2
2022-11-07T15:23:22.334Z,77.2
2022-11-07T15:24:39.439Z,77.3
2022-11-07T15:25:56.543Z,77.3
2022-11-07T15:27:13.647Z,77.3
2022-11-07T15:28:30.751Z,77.3
2022-11-07T15:29:47.855Z,77.4
2022-11-07T15:31:04.959Z,77.4
2022-11-07T15:32:22.063Z,77.3
2022-11-07T15:33:38.184Z,77.3
2022-11-07T15:34:55.288Z,77.2
2022-11-07T15:36:12.392Z,77.3
2022-11-07T15:38:46.600Z,77.1
2022-11-07T15:40:03.704Z,77.2
2022-11-07T15:41:20.808Z,77.2
2022-11-07T15:42:37.913Z,77.4
2022-11-07T15:43:55.017Z,77.4
2022-11-07T15:45:12.121Z,77.5
2022-11-07T15:46:29.225Z,77.6
2022-11-07T15:47:46.329Z,77.5
2022-11-07T15:49:03.433Z,77.4
2022-11-07T15:50:19.553Z,77.5
2022-11-07T15:51:36.657Z,77.7
2022-11-07T15:52:53.762Z,77.7
2022-11-07T15:54:10.866Z,77.8
2022-11-07T15:55:27.970Z,77.9
2022-11-07T15:56:45.074Z,78
2022-11-07T15:58:02.178Z,77.9
2022-11-07T15:59:19.282Z,77.9
2022-11-07T16:00:36.386Z,78
2022-11-07T16:01:53.490Z,78
2022-11-07T16:03:10.595Z,78
2022-11-07T16:04:27.699Z,77.8
2022-11-07T16:05:44.803Z,77.8
2022-11-07T16:07:00.923Z,77.5
2022-11-07T16:08:18.027Z,77.7
2022-11-07T16:09:35.132Z,77.8
2022-11-07T16:10:52.236Z,77.8
2022-11-07T16:12:09.340Z,77.8
2022-11-07T16:13:26.444Z,77.8
2022-11-07T16:14:43.548Z,77.9
2022-11-07T16:16:00.652Z,77.9
2022-11-07T16:17:17.756Z,78.1
2022-11-07T16:18:34.860Z,78
2022-11-07T16:19:51.965Z,77.9
2022-11-07T16:21:09.069Z,78
2022-11-07T16:22:26.173Z,78.1
2022-11-07T16:23:42.293Z,78.2
2022-11-07T16:24:59.397Z,78.2
2022-11-07T16:26:16.502Z,78.4
2022-11-07T16:27:33.604Z,78.3
2022-11-07T16:28:50.708Z,78.4
2022-11-07T16:30:07.812Z,78.6
2022-11-07T16:31:24.917Z,78.7
2022-11-07T16:32:42.021Z,78.7
2022-11-07T16:33:59.125Z,78.7
2022-11-07T16:35:16.229Z,78.7
2022-11-07T16:36:33.333Z,78.7
2022-11-07T16:37:50.437Z,78.7
2022-11-07T16:39:07.541Z,78.8
2022-11-07T16:40:23.661Z,78.8
2022-11-07T16:41:40.765Z,78.8
2022-11-07T16:42:57.870Z,78.7
2022-11-07T16:44:14.974Z,78.7
2022-11-07T16:45:32.078Z,78.8
2022-11-07T16:46:49.182Z,78.8
2022-11-07T16:48:06.286Z,78.8
2022-11-07T16:49:23.391Z,78.7
2022-11-07T16:50:40.495Z,78.7
2022-11-07T16:51:57.599Z,78.8
2022-11-07T16:53:14.704Z,78.9
2022-11-07T16:54:31.808Z,78.9
2022-11-07T16:55:48.912Z,78.9
2022-11-07T16:57:05.032Z,78.9
2022-11-07T16:58:22.137Z,78.9
2022-11-07T16:59:39.241Z,79
2022-11-07T17:00:56.345Z,78.9
2022-11-07T17:02:13.449Z,79
2022-11-07T17:03:30.553Z,79
2022-11-07T17:04:47.657Z,79
2022-11-07T17:06:04.761Z,79
2022-11-07T17:07:21.865Z,79.1
2022-11-07T17:08:38.970Z,79.1
2022-11-07T17:09:56.074Z,79.2
2022-11-07T17:11:13.178Z,79.2
2022-11-07T17:12:30.283Z,79.4
2022-11-07T17:13:46.403Z,79.4
2022-11-07T17:15:03.508Z,79.5
2022-11-07T17:16:20.612Z,79.4